createdAt,value
2023-04-01T00:01:49.050Z,5.20
2023-04-01T00:04:52.356Z,5.22
2023-04-01T00:07:56.257Z,4.47
2023-04-01T00:11:00.093Z,5.68
2023-04-01T00:14:03.390Z,4.37
2023-04-01T00:17:07.220Z,3.80
2023-04-01T00:20:11.034Z,4.03
2023-04-01T00:23:16.139Z,5.32
2023-04-01T00:26:22.195Z,4.97
2023-04-01T00:29:30.261Z,3.78
2023-04-01T00:32:33.597Z,6.22
2023-04-01T00:35:37.787Z,6.00
2023-04-01T00:38:42.685Z,9.33
2023-04-01T00:41:46.308Z,6.37
2023-04-01T00:44:54.736Z,5.53
2023-04-01T00:48:03.577Z,5.90
2023-04-01T00:51:10.980Z,7.10
2023-04-01T00:54:15.575Z,7.75
2023-04-01T00:57:38.820Z,4.40
2023-04-01T01:00:43.478Z,4.97
2023-04-01T01:03:46.719Z,4.93
2023-04-01T01:07:08.418Z,5.35
2023-04-01T01:10:11.515Z,4.65
2023-04-01T01:13:30.434Z,7.55
2023-04-01T01:16:41.833Z,5.70
2023-04-01T01:20:02.724Z,9.57
2023-04-01T01:23:38.258Z,5.80
2023-04-01T01:27:04.009Z,5.00
2023-04-01T01:30:13.608Z,5.23
2023-04-01T01:33:35.580Z,7.32
2023-04-01T01:36:43.709Z,5.78
2023-04-01T01:39:52.041Z,5.82
2023-04-01T01:43:00.567Z,5.20
2023-04-01T01:46:10.679Z,5.35
2023-04-01T01:49:16.553Z,5.72
2023-04-01T01:52:20.434Z,5.93
2023-04-01T01:55:31.554Z,6.95
2023-04-01T01:58:44.179Z,7.07
2023-04-01T02:01:52.254Z,5.62
2023-04-01T02:04:56.410Z,5.40
2023-04-01T02:08:09.222Z,7.97
2023-04-01T02:11:21.068Z,5.65
2023-04-01T02:14:29.311Z,6.25
2023-04-01T02:17:35.206Z,5.97
2023-04-01T02:20:41.768Z,4.67
2023-04-01T02:23:46.908Z,4.50
2023-04-01T02:26:52.062Z,6.25
2023-04-01T02:29:55.757Z,3.42
2023-04-01T02:33:00.043Z,4.35
2023-04-01T02:36:03.372Z,5.37
2023-04-01T02:39:08.776Z,3.40
2023-04-01T02:42:12.168Z,3.85
2023-04-01T02:45:16.436Z,3.80
2023-04-01T02:48:19.743Z,3.93
2023-04-01T02:51:24.521Z,4.30
2023-04-01T02:54:28.978Z,4.05
2023-04-01T02:57:32.502Z,4.47
2023-04-01T03:00:35.952Z,3.12
2023-04-01T03:03:39.578Z,3.53
2023-04-01T03:06:42.879Z,2.50
2023-04-01T03:09:46.872Z,4.10
2023-04-01T03:12:49.893Z,3.78
2023-04-01T03:15:54.633Z,3.97
2023-04-01T03:19:00.118Z,5.30
2023-04-01T03:22:03.909Z,5.32
2023-04-01T03:25:08.809Z,3.22
2023-04-01T03:28:13.516Z,3.10
2023-04-01T03:31:17.319Z,6.35
2023-04-01T03:34:21.462Z,3.17
2023-04-01T03:37:25.613Z,2.83
2023-04-01T03:40:29.483Z,4.35
2023-04-01T03:43:33.279Z,4.20
2023-04-01T03:46:38.181Z,4.22
2023-04-01T03:49:41.544Z,4.62
2023-04-01T03:52:45.875Z,2.78
2023-04-01T03:55:52.348Z,3.60
2023-04-01T03:58:56.766Z,4.87
2023-04-01T04:01:59.903Z,4.62
2023-04-01T04:05:03.898Z,4.05
2023-04-01T04:08:07.246Z,4.05
2023-04-01T04:11:10.867Z,2.80
2023-04-01T04:14:16.150Z,3.45
2023-04-01T04:17:20.397Z,6.12
2023-04-01T04:20:23.726Z,2.60
2023-04-01T04:23:28.178Z,4.53
2023-04-01T04:26:31.579Z,3.30
2023-04-01T04:29:35.499Z,3.10
2023-04-01T04:32:38.801Z,4.78
2023-04-01T04:35:42.316Z,4.00
2023-04-01T04:38:46.124Z,3.35
2023-04-01T04:41:50.021Z,3.05
2023-04-01T04:44:54.146Z,6.60
2023-04-01T04:48:00.048Z,4.55
2023-04-01T04:51:04.951Z,3.80
2023-04-01T04:54:10.549Z,4.35
2023-04-01T04:57:16.546Z,4.90
2023-04-01T05:00:20.398Z,4.43
2023-04-01T05:03:23.989Z,4.23
2023-04-01T05:06:30.642Z,4.25
2023-04-01T05:09:35.050Z,3.92
2023-04-01T05:12:40.093Z,5.43
2023-04-01T05:15:43.486Z,4.40
2023-04-01T05:18:48.557Z,3.92
2023-04-01T05:21:52.194Z,3.83
2023-04-01T05:24:56.511Z,4.10
2023-04-01T05:27:59.977Z,4.43
2023-04-01T05:31:05.488Z,4.75
2023-04-01T05:34:09.740Z,4.65
2023-04-01T05:37:13.080Z,6.15
2023-04-01T05:40:16.718Z,6.68
2023-04-01T05:43:20.574Z,4.30
2023-04-01T05:46:25.038Z,6.60
2023-04-01T05:49:29.860Z,6.32
2023-04-01T05:52:33.458Z,4.50
2023-04-01T05:55:37.557Z,13.87
2023-04-01T05:58:41.536Z,3.10
2023-04-01T06:01:45.411Z,7.22
2023-04-01T06:04:49.575Z,6.95
2023-04-01T06:07:59.583Z,4.28
2023-04-01T06:11:12.184Z,4.87
2023-04-01T06:14:32.246Z,4.32
2023-04-01T06:17:58.888Z,5.47
2023-04-01T06:21:22.145Z,4.05
2023-04-01T06:24:32.450Z,4.68
2023-04-01T06:27:50.581Z,6.23
2023-04-01T06:31:12.951Z,3.30
2023-04-01T06:34:47.493Z,3.55
2023-04-01T06:38:09.448Z,4.50
2023-04-01T06:41:31.369Z,5.00
2023-04-01T06:45:05.347Z,4.23
2023-04-01T06:49:12.414Z,4.03
2023-04-01T06:52:31.341Z,5.25
2023-04-01T06:55:52.286Z,3.62
2023-04-01T06:59:13.740Z,4.30
2023-04-01T07:02:31.655Z,3.67
2023-04-01T07:05:37.016Z,6.60
2023-04-01T07:08:45.397Z,4.85
2023-04-01T07:11:48.925Z,4.43
2023-04-01T07:15:03.039Z,3.97
2023-04-01T07:18:52.743Z,3.10
2023-04-01T07:22:12.529Z,4.33
2023-04-01T07:25:21.920Z,6.90
2023-04-01T07:28:32.235Z,4.05
2023-04-01T07:31:49.929Z,6.68
2023-04-01T07:35:12.997Z,4.23
2023-04-01T07:38:25.981Z,4.00
2023-04-01T07:41:52.333Z,4.95
2023-04-01T07:45:02.109Z,3.78
2023-04-01T07:48:16.008Z,5.95
2023-04-01T07:51:48.130Z,3.30
2023-04-01T07:54:59.379Z,3.97
2023-04-01T07:58:50.276Z,8.23
2023-04-01T08:02:14.185Z,5.00
2023-04-01T08:05:34.344Z,3.33
2023-04-01T08:08:47.491Z,5.40
2023-04-01T08:11:59.371Z,7.47
2023-04-01T08:15:14.913Z,4.80
2023-04-01T08:18:54.506Z,4.32
2023-04-01T08:22:05.599Z,7.62
2023-04-01T08:25:17.685Z,11.60
2023-04-01T08:28:59.887Z,3.90
2023-04-01T08:32:33.523Z,3.83
2023-04-01T08:35:58.893Z,4.47
2023-04-01T08:39:20.664Z,4.07
2023-04-01T08:42:34.091Z,4.27
2023-04-01T08:45:41.788Z,3.33
2023-04-01T08:49:04.022Z,4.70
2023-04-01T08:52:13.648Z,3.78
2023-04-01T08:55:16.901Z,6.50
2023-04-01T08:58:39.683Z,8.67
2023-04-01T09:01:57.625Z,5.70
2023-04-01T09:05:32.193Z,4.45
2023-04-01T09:08:44.438Z,3.08
2023-04-01T09:11:56.800Z,3.62
2023-04-01T09:15:29.620Z,4.43
2023-04-01T09:18:45.736Z,4.03
2023-04-01T09:21:57.204Z,6.05
2023-04-01T09:25:13.811Z,3.78
2023-04-01T09:28:29.631Z,3.50
2023-04-01T09:32:11.227Z,4.73
2023-04-01T09:35:23.680Z,6.10
2023-04-01T09:38:38.393Z,3.75
2023-04-01T09:42:17.128Z,5.32
2023-04-01T09:45:39.025Z,3.85
2023-04-01T09:48:44.868Z,5.73
2023-04-01T09:52:13.567Z,3.80
2023-04-01T09:55:35.584Z,4.80
2023-04-01T09:58:43.593Z,3.83
2023-04-01T10:02:21.224Z,5.45
2023-04-01T10:05:30.429Z,5.43
2023-04-01T10:09:02.039Z,4.70
2023-04-01T10:12:27.206Z,5.65
2023-04-01T10:15:48.771Z,6.05
2023-04-01T10:19:30.329Z,7.97
2023-04-01T10:22:56.395Z,5.97
2023-04-01T10:26:38.367Z,8.33
2023-04-01T10:30:08.124Z,4.60
2023-04-01T10:33:21.488Z,6.57
2023-04-01T10:36:43.380Z,5.97
2023-04-01T10:40:02.456Z,7.47
2023-04-01T10:43:34.312Z,7.30
2023-04-01T10:47:03.989Z,7.07
2023-04-01T10:51:02.650Z,5.35
2023-04-01T10:54:18.265Z,4.45
2023-04-01T10:57:44.943Z,7.03
2023-04-01T11:00:58.854Z,5.73
2023-04-01T11:04:08.354Z,4.93
2023-04-01T11:07:32.004Z,8.48
2023-04-01T11:10:41.923Z,5.50
2023-04-01T11:14:00.361Z,5.70
2023-04-01T11:17:09.534Z,8.57
2023-04-01T11:20:46.831Z,3.70
2023-04-01T11:24:14.493Z,5.45
2023-04-01T11:27:51.453Z,3.62
2023-04-01T11:31:00.922Z,6.73
2023-04-01T11:34:11.485Z,4.17
2023-04-01T11:37:32.609Z,4.70
2023-04-01T11:40:55.839Z,4.70
2023-04-01T11:44:21.164Z,5.80
2023-04-01T11:47:52.600Z,3.30
2023-04-01T11:51:28.932Z,6.33
2023-04-01T11:55:17.955Z,8.45
2023-04-01T11:58:32.997Z,8.23
2023-04-01T12:01:57.776Z,5.10
2023-04-01T12:05:19.433Z,3.60
2023-04-01T12:08:39.768Z,5.07
2023-04-01T12:11:57.713Z,7.43
2023-04-01T12:15:16.066Z,5.85
2023-04-01T12:18:29.238Z,3.70
2023-04-01T12:21:44.857Z,4.20
2023-04-01T12:25:07.648Z,4.20
2023-04-01T12:28:21.370Z,4.22
2023-04-01T12:32:15.706Z,6.05
2023-04-01T12:35:49.702Z,3.50
2023-04-01T12:39:48.479Z,4.03
2023-04-01T12:43:03.474Z,12.90
2023-04-01T12:46:28.410Z,4.00
2023-04-01T12:49:57.969Z,3.37
2023-04-01T12:53:15.299Z,4.05
2023-04-01T12:56:29.356Z,3.33
2023-04-01T12:59:55.578Z,3.27
2023-04-01T13:03:10.603Z,6.07
2023-04-01T13:06:52.651Z,5.50
2023-04-01T13:10:05.184Z,4.47
2023-04-01T13:13:53.444Z,2.80
2023-04-01T13:16:59.803Z,5.13
2023-04-01T13:20:31.949Z,5.45
2023-04-01T13:23:38.010Z,3.80
2023-04-01T13:27:06.073Z,6.40
2023-04-01T13:30:32.230Z,4.20
2023-04-01T13:34:01.349Z,3.83
2023-04-01T13:37:04.405Z,3.20
2023-04-01T13:40:26.448Z,3.00
2023-04-01T13:43:38.531Z,3.10
2023-04-01T13:46:51.432Z,3.00
2023-04-01T13:50:21.671Z,8.10
2023-04-01T13:53:46.545Z,5.10
2023-04-01T13:57:24.005Z,2.97
2023-04-01T14:00:46.151Z,6.05
2023-04-01T14:04:10.871Z,3.83
2023-04-01T14:07:40.139Z,4.40
2023-04-01T14:11:05.768Z,3.60
2023-04-01T14:14:28.834Z,3.50
2023-04-01T14:18:06.486Z,5.97
2023-04-01T14:21:15.676Z,17.33
2023-04-01T14:24:30.265Z,4.10
2023-04-01T14:27:45.675Z,3.67
2023-04-01T14:31:21.797Z,3.72
2023-04-01T14:35:01.409Z,3.40
2023-04-01T14:38:14.028Z,5.50
2023-04-01T14:41:39.695Z,6.73
2023-04-01T14:44:54.350Z,5.82
2023-04-01T14:48:00.321Z,3.50
2023-04-01T14:51:31.023Z,4.43
2023-04-01T14:54:39.297Z,3.73
2023-04-01T14:57:43.140Z,4.23
2023-04-01T15:00:51.687Z,4.45
2023-04-01T15:04:42.541Z,4.07
2023-04-01T15:07:58.594Z,3.45
2023-04-01T15:11:28.368Z,2.77
2023-04-01T15:14:48.120Z,3.63
2023-04-01T15:18:06.837Z,4.18
2023-04-01T15:21:44.448Z,3.30
2023-04-01T15:25:18.659Z,2.75
2023-04-01T15:28:24.912Z,3.80
2023-04-01T15:31:36.466Z,3.30
2023-04-01T15:35:21.590Z,3.28
2023-04-01T15:38:33.202Z,5.07
2023-04-01T15:42:15.512Z,3.92
2023-04-01T15:45:36.427Z,4.43
2023-04-01T15:49:10.788Z,4.13
2023-04-01T15:52:26.155Z,4.22
2023-04-01T15:55:55.109Z,4.03
2023-04-01T15:59:01.541Z,4.37
2023-04-01T16:02:13.742Z,5.87
2023-04-01T16:05:26.329Z,5.37
2023-04-01T16:09:03.970Z,4.87
2023-04-01T16:12:18.997Z,4.37
2023-04-01T16:15:44.260Z,4.93
2023-04-01T16:19:22.908Z,3.93
2023-04-01T16:22:51.447Z,5.80
2023-04-01T16:26:07.003Z,4.05
2023-04-01T16:29:24.745Z,7.03
2023-04-01T16:32:51.968Z,4.97
2023-04-01T16:36:39.393Z,5.33
2023-04-01T16:40:02.841Z,4.73
2023-04-01T16:43:17.476Z,4.15
2023-04-01T16:46:37.836Z,4.95
2023-04-01T16:49:54.709Z,6.03
2023-04-01T16:53:10.067Z,6.17
2023-04-01T16:56:30.169Z,6.20
2023-04-01T16:59:47.739Z,10.02
2023-04-01T17:02:58.411Z,5.75
2023-04-01T17:06:12.808Z,11.30
2023-04-01T17:09:29.466Z,5.00
2023-04-01T17:12:44.153Z,6.83
2023-04-01T17:16:18.425Z,6.50
2023-04-01T17:19:37.973Z,8.40
2023-04-01T17:22:46.297Z,13.98
2023-04-01T17:26:23.742Z,10.60
2023-04-01T17:29:45.568Z,6.95
2023-04-01T17:33:08.488Z,17.67
2023-04-01T17:36:17.633Z,9.95
2023-04-01T17:39:47.261Z,12.80
2023-04-01T17:43:23.125Z,7.57
2023-04-01T17:46:45.991Z,10.23
2023-04-01T17:50:18.285Z,6.07
2023-04-01T17:54:04.344Z,7.47
2023-04-01T17:57:33.138Z,7.55
2023-04-01T18:01:26.973Z,11.77
2023-04-01T18:04:34.355Z,22.00
2023-04-01T18:08:10.676Z,24.23
2023-04-01T18:11:28.107Z,19.12
2023-04-01T18:14:46.320Z,14.00
2023-04-01T18:18:17.947Z,12.50
2023-04-01T18:21:34.215Z,13.07
2023-04-01T18:24:47.325Z,11.70
2023-04-01T18:28:24.573Z,13.65
2023-04-01T18:31:41.336Z,11.23
2023-04-01T18:34:58.897Z,10.93
2023-04-01T18:38:14.913Z,13.50
2023-04-01T18:41:37.177Z,11.88
2023-04-01T18:45:05.493Z,19.35
2023-04-01T18:48:34.960Z,13.20
2023-04-01T18:51:48.803Z,12.80
2023-04-01T18:55:05.010Z,13.07
2023-04-01T18:58:16.989Z,16.52
2023-04-01T19:01:45.397Z,10.43
2023-04-01T19:05:20.146Z,4.28
2023-04-01T19:08:35.530Z,4.77
2023-04-01T19:12:05.250Z,5.43
2023-04-01T19:15:27.057Z,5.87
2023-04-01T19:18:57.121Z,5.37
2023-04-01T19:22:30.911Z,4.15
2023-04-01T19:25:57.189Z,6.87
2023-04-01T19:29:26.786Z,4.12
2023-04-01T19:32:49.819Z,8.43
2023-04-01T19:36:18.421Z,6.60
2023-04-01T19:40:20.902Z,5.35
2023-04-01T19:43:37.022Z,6.57
2023-04-01T19:46:51.708Z,6.28
2023-04-01T19:50:07.800Z,5.03
2023-04-01T19:53:46.562Z,12.37
2023-04-01T19:57:12.901Z,9.83
2023-04-01T20:00:36.723Z,9.00
2023-04-01T20:03:49.932Z,9.02
2023-04-01T20:07:08.764Z,7.05
2023-04-01T20:10:28.434Z,6.90
2023-04-01T20:13:50.417Z,8.70
2023-04-01T20:17:02.770Z,8.88
2023-04-01T20:20:10.986Z,13.07
2023-04-01T20:23:33.944Z,9.95
2023-04-01T20:26:43.038Z,9.50
2023-04-01T20:30:05.834Z,8.32
2023-04-01T20:33:42.149Z,8.80
2023-04-01T20:37:12.008Z,5.95
2023-04-01T20:40:44.384Z,5.57
2023-04-01T20:43:55.508Z,5.60
2023-04-01T20:47:15.535Z,5.60
2023-04-01T20:50:50.970Z,5.45
2023-04-01T20:54:07.032Z,7.18
2023-04-01T20:57:33.238Z,4.73
2023-04-01T21:01:10.740Z,5.37
2023-04-01T21:04:39.453Z,5.75
2023-04-01T21:07:50.903Z,4.60
2023-04-01T21:11:15.849Z,5.07
2023-04-01T21:14:32.752Z,5.17
2023-04-01T21:17:39.190Z,7.07
2023-04-01T21:20:58.266Z,7.20
2023-04-01T21:24:31.213Z,7.00
2023-04-01T21:27:37.212Z,8.93
2023-04-01T21:30:46.982Z,7.68
2023-04-01T21:34:19.723Z,11.48
2023-04-01T21:37:50.072Z,8.68
2023-04-01T21:41:02.967Z,8.57
2023-04-01T21:44:50.059Z,10.20
2023-04-01T21:48:28.662Z,11.18
2023-04-01T21:52:20.684Z,10.65
2023-04-01T21:55:42.906Z,9.33
2023-04-01T21:59:17.955Z,9.73
2023-04-01T22:02:43.674Z,8.35
2023-04-01T22:06:13.459Z,15.35
2023-04-01T22:09:26.738Z,11.00
2023-04-01T22:12:46.012Z,14.27
2023-04-01T22:15:58.666Z,12.30
2023-04-01T22:19:43.217Z,10.77
2023-04-01T22:23:07.344Z,10.70
2023-04-01T22:26:33.517Z,10.02
2023-04-01T22:29:54.359Z,10.27
2023-04-01T22:33:06.762Z,12.67
2023-04-01T22:36:19.075Z,11.15
2023-04-01T22:39:37.740Z,13.98
2023-04-01T22:42:49.677Z,12.57
2023-04-01T22:45:56.913Z,14.32
2023-04-01T22:49:18.726Z,15.23
2023-04-01T22:52:42.887Z,15.10
2023-04-01T22:55:53.445Z,16.87
2023-04-01T22:59:43.172Z,20.75
2023-04-01T23:03:09.150Z,20.37
2023-04-01T23:06:42.440Z,16.42
2023-04-01T23:09:45.743Z,20.17
2023-04-01T23:12:52.832Z,20.73
2023-04-01T23:15:56.820Z,18.95
2023-04-01T23:19:14.705Z,18.48
2023-04-01T23:22:31.522Z,18.95
2023-04-01T23:25:43.694Z,18.92
2023-04-01T23:28:51.235Z,17.95
2023-04-01T23:32:05.716Z,18.97
2023-04-01T23:35:18.071Z,21.77
2023-04-01T23:38:24.302Z,23.70
2023-04-01T23:41:31.768Z,22.47
2023-04-01T23:44:37.690Z,22.50
2023-04-01T23:47:42.315Z,18.92
2023-04-01T23:50:47.263Z,22.30
2023-04-01T23:54:04.063Z,19.95
2023-04-01T23:57:14.761Z,12.15
